sensor_id;sensor_type;location;lat;lon;timestamp;temperature;humidity
52113;DHT22;38109;49.488;31.988;2023-06-10T00:01:32;21.50;62.60
52113;DHT22;38109;49.488;31.988;2023-06-10T00:04:02;21.40;62.70
52113;DHT22;38109;49.488;31.988;2023-06-10T00:06:28;21.40;62.90
52113;DHT22;38109;49.488;31.988;2023-06-10T00:09:07;21.30;62.80
52113;DHT22;38109;49.488;31.988;2023-06-10T00:11:37;21.30;63.00
52113;DHT22;38109;49.488;31.988;2023-06-10T00:14:03;21.30;63.10
52113;DHT22;38109;49.488;31.988;2023-06-10T00:16:29;21.20;63.10
52113;DHT22;38109;49.488;31.988;2023-06-10T00:18:55;21.20;63.10
52113;DHT22;38109;49.488;31.988;2023-06-10T00:21:26;21.20;63.30
52113;DHT22;38109;49.488;31.988;2023-06-10T00:23:52;21.10;63.20
52113;DHT22;38109;49.488;31.988;2023-06-10T00:26:17;21.00;63.30
52113;DHT22;38109;49.488;31.988;2023-06-10T00:28:43;21.00;63.40
52113;DHT22;38109;49.488;31.988;2023-06-10T00:31:10;21.00;63.40
52113;DHT22;38109;49.488;31.988;2023-06-10T00:33:36;20.90;63.50
52113;DHT22;38109;49.488;31.988;2023-06-10T00:36:02;20.90;63.50
52113;DHT22;38109;49.488;31.988;2023-06-10T00:38:27;20.90;63.70
52113;DHT22;38109;49.488;31.988;2023-06-10T00:40:53;20.80;63.70
52113;DHT22;38109;49.488;31.988;2023-06-10T00:43:18;20.80;63.70
52113;DHT22;38109;49.488;31.988;2023-06-10T00:45:44;20.70;63.80
52113;DHT22;38109;49.488;31.988;2023-06-10T00:48:10;20.70;64.00
52113;DHT22;38109;49.488;31.988;2023-06-10T00:50:36;20.60;64.00
52113;DHT22;38109;49.488;31.988;2023-06-10T00:53:05;20.60;64.10
52113;DHT22;38109;49.488;31.988;2023-06-10T00:55:32;20.50;64.10
52113;DHT22;38109;49.488;31.988;2023-06-10T00:57:58;20.50;64.30
52113;DHT22;38109;49.488;31.988;2023-06-10T01:00:24;20.40;64.30
52113;DHT22;38109;49.488;31.988;2023-06-10T01:02:49;20.40;64.40
52113;DHT22;38109;49.488;31.988;2023-06-10T01:05:17;20.40;64.50
52113;DHT22;38109;49.488;31.988;2023-06-10T01:07:50;20.30;64.50
52113;DHT22;38109;49.488;31.988;2023-06-10T01:13:08;20.30;64.70
52113;DHT22;38109;49.488;31.988;2023-06-10T01:15:37;20.20;64.80
52113;DHT22;38109;49.488;31.988;2023-06-10T01:18:08;20.10;64.80
52113;DHT22;38109;49.488;31.988;2023-06-10T01:20:36;20.10;64.90
52113;DHT22;38109;49.488;31.988;2023-06-10T01:23:06;20.10;65.00
52113;DHT22;38109;49.488;31.988;2023-06-10T01:25:33;20.00;65.00
52113;DHT22;38109;49.488;31.988;2023-06-10T01:28:14;19.90;65.10
52113;DHT22;38109;49.488;31.988;2023-06-10T01:33:31;19.90;65.40
52113;DHT22;38109;49.488;31.988;2023-06-10T01:35:59;19.80;65.50
52113;DHT22;38109;49.488;31.988;2023-06-10T01:38:27;19.70;65.50
52113;DHT22;38109;49.488;31.988;2023-06-10T01:40:55;19.70;65.70
52113;DHT22;38109;49.488;31.988;2023-06-10T01:43:22;19.70;65.80
52113;DHT22;38109;49.488;31.988;2023-06-10T01:45:47;19.70;66.10
52113;DHT22;38109;49.488;31.988;2023-06-10T01:48:13;19.60;66.00
52113;DHT22;38109;49.488;31.988;2023-06-10T01:50:39;19.60;66.10
52113;DHT22;38109;49.488;31.988;2023-06-10T01:53:05;19.50;66.10
52113;DHT22;38109;49.488;31.988;2023-06-10T01:55:31;19.50;66.20
52113;DHT22;38109;49.488;31.988;2023-06-10T01:57:57;19.50;66.20
52113;DHT22;38109;49.488;31.988;2023-06-10T02:00:23;19.50;66.30
52113;DHT22;38109;49.488;31.988;2023-06-10T02:02:48;19.50;66.30
52113;DHT22;38109;49.488;31.988;2023-06-10T02:05:14;19.50;66.30
52113;DHT22;38109;49.488;31.988;2023-06-10T02:07:39;19.40;66.30
52113;DHT22;38109;49.488;31.988;2023-06-10T02:10:06;19.40;66.40
52113;DHT22;38109;49.488;31.988;2023-06-10T02:12:32;19.40;66.50
52113;DHT22;38109;49.488;31.988;2023-06-10T02:14:58;19.40;66.60
52113;DHT22;38109;49.488;31.988;2023-06-10T02:17:23;19.40;66.60
52113;DHT22;38109;49.488;31.988;2023-06-10T02:19:49;19.40;66.60
52113;DHT22;38109;49.488;31.988;2023-06-10T02:22:20;19.40;66.70
52113;DHT22;38109;49.488;31.988;2023-06-10T02:24:45;19.30;66.70
52113;DHT22;38109;49.488;31.988;2023-06-10T02:27:11;19.30;66.90
52113;DHT22;38109;49.488;31.988;2023-06-10T02:29:37;19.30;66.80
52113;DHT22;38109;49.488;31.988;2023-06-10T02:32:03;19.30;67.00
52113;DHT22;38109;49.488;31.988;2023-06-10T02:34:29;19.30;67.20
52113;DHT22;38109;49.488;31.988;2023-06-10T02:36:54;19.20;67.10
52113;DHT22;38109;49.488;31.988;2023-06-10T02:39:21;19.30;67.20
52113;DHT22;38109;49.488;31.988;2023-06-10T02:41:47;19.20;67.20
52113;DHT22;38109;49.488;31.988;2023-06-10T02:44:12;19.20;67.80
52113;DHT22;38109;49.488;31.988;2023-06-10T02:46:38;19.20;67.30
52113;DHT22;38109;49.488;31.988;2023-06-10T02:49:04;19.20;67.40
52113;DHT22;38109;49.488;31.988;2023-06-10T02:51:29;19.20;67.40
52113;DHT22;38109;49.488;31.988;2023-06-10T02:53:55;19.20;67.60
52113;DHT22;38109;49.488;31.988;2023-06-10T02:56:21;19.30;67.60
52113;DHT22;38109;49.488;31.988;2023-06-10T02:58:47;19.30;67.60
52113;DHT22;38109;49.488;31.988;2023-06-10T03:01:15;19.30;67.60
52113;DHT22;38109;49.488;31.988;2023-06-10T03:03:40;19.30;67.70
52113;DHT22;38109;49.488;31.988;2023-06-10T03:06:11;19.30;67.80
52113;DHT22;38109;49.488;31.988;2023-06-10T03:08:38;19.30;67.80
52113;DHT22;38109;49.488;31.988;2023-06-10T03:11:04;19.30;67.90
52113;DHT22;38109;49.488;31.988;2023-06-10T03:13:29;19.30;67.90
52113;DHT22;38109;49.488;31.988;2023-06-10T03:15:55;19.40;68.00
52113;DHT22;38109;49.488;31.988;2023-06-10T03:18:21;19.40;67.80
52113;DHT22;38109;49.488;31.988;2023-06-10T03:20:48;19.50;67.90
52113;DHT22;38109;49.488;31.988;2023-06-10T03:23:14;19.50;67.90
52113;DHT22;38109;49.488;31.988;2023-06-10T03:25:41;19.50;68.00
52113;DHT22;38109;49.488;31.988;2023-06-10T03:28:06;19.60;68.10
52113;DHT22;38109;49.488;31.988;2023-06-10T03:30:32;19.60;68.00
52113;DHT22;38109;49.488;31.988;2023-06-10T03:32:57;19.60;68.10
52113;DHT22;38109;49.488;31.988;2023-06-10T03:35:23;19.70;68.10
52113;DHT22;38109;49.488;31.988;2023-06-10T03:37:49;19.70;68.20
52113;DHT22;38109;49.488;31.988;2023-06-10T03:40:14;19.80;68.40
52113;DHT22;38109;49.488;31.988;2023-06-10T03:42:40;19.90;68.50
52113;DHT22;38109;49.488;31.988;2023-06-10T03:45:06;19.90;68.40
52113;DHT22;38109;49.488;31.988;2023-06-10T03:47:36;19.90;68.60
52113;DHT22;38109;49.488;31.988;2023-06-10T03:50:05;20.00;69.20
52113;DHT22;38109;49.488;31.988;2023-06-10T03:52:31;20.00;68.80
52113;DHT22;38109;49.488;31.988;2023-06-10T03:54:57;20.10;69.00
52113;DHT22;38109;49.488;31.988;2023-06-10T03:57:23;20.10;69.10
52113;DHT22;38109;49.488;31.988;2023-06-10T03:59:48;20.10;69.10
52113;DHT22;38109;49.488;31.988;2023-06-10T04:02:14;20.20;69.30
52113;DHT22;38109;49.488;31.988;2023-06-10T04:04:40;20.20;69.10
52113;DHT22;38109;49.488;31.988;2023-06-10T04:07:06;20.20;69.10
52113;DHT22;38109;49.488;31.988;2023-06-10T04:09:33;20.30;69.20
52113;DHT22;38109;49.488;31.988;2023-06-10T04:11:59;20.30;69.10
52113;DHT22;38109;49.488;31.988;2023-06-10T04:14:25;20.40;69.20
52113;DHT22;38109;49.488;31.988;2023-06-10T04:16:50;20.50;69.30
52113;DHT22;38109;49.488;31.988;2023-06-10T04:19:16;20.50;69.30
52113;DHT22;38109;49.488;31.988;2023-06-10T04:21:42;20.60;69.30
52113;DHT22;38109;49.488;31.988;2023-06-10T04:24:08;20.60;69.40
52113;DHT22;38109;49.488;31.988;2023-06-10T04:26:35;20.70;69.50
52113;DHT22;38109;49.488;31.988;2023-06-10T04:29:01;20.70;69.40
52113;DHT22;38109;49.488;31.988;2023-06-10T04:31:27;20.80;69.60
52113;DHT22;38109;49.488;31.988;2023-06-10T04:33:53;20.80;69.60
52113;DHT22;38109;49.488;31.988;2023-06-10T04:36:19;20.90;69.70
52113;DHT22;38109;49.488;31.988;2023-06-10T04:38:44;21.00;69.70
52113;DHT22;38109;49.488;31.988;2023-06-10T04:41:10;21.00;69.70
52113;DHT22;38109;49.488;31.988;2023-06-10T04:43:35;21.10;69.80
52113;DHT22;38109;49.488;31.988;2023-06-10T04:46:02;21.20;69.80
52113;DHT22;38109;49.488;31.988;2023-06-10T04:48:27;21.30;69.70
52113;DHT22;38109;49.488;31.988;2023-06-10T04:50:53;21.30;69.80
52113;DHT22;38109;49.488;31.988;2023-06-10T04:53:19;21.40;69.70
52113;DHT22;38109;49.488;31.988;2023-06-10T04:55:46;21.50;69.50
52113;DHT22;38109;49.488;31.988;2023-06-10T04:58:12;21.60;69.40
52113;DHT22;38109;49.488;31.988;2023-06-10T05:00:37;21.70;69.20
52113;DHT22;38109;49.488;31.988;2023-06-10T05:03:03;21.70;69.00
52113;DHT22;38109;49.488;31.988;2023-06-10T05:05:29;21.80;69.40
52113;DHT22;38109;49.488;31.988;2023-06-10T05:07:54;21.90;68.90
52113;DHT22;38109;49.488;31.988;2023-06-10T05:10:20;22.00;69.00
52113;DHT22;38109;49.488;31.988;2023-06-10T05:12:46;22.10;68.80
52113;DHT22;38109;49.488;31.988;2023-06-10T05:15:11;22.20;68.70
52113;DHT22;38109;49.488;31.988;2023-06-10T05:17:37;22.30;68.60
52113;DHT22;38109;49.488;31.988;2023-06-10T05:20:03;22.30;68.40
52113;DHT22;38109;49.488;31.988;2023-06-10T05:22:29;22.40;68.30
52113;DHT22;38109;49.488;31.988;2023-06-10T05:24:55;22.50;68.20
52113;DHT22;38109;49.488;31.988;2023-06-10T05:27:20;22.60;68.30
52113;DHT22;38109;49.488;31.988;2023-06-10T05:29:47;22.70;68.20
52113;DHT22;38109;49.488;31.988;2023-06-10T05:32:13;22.70;68.40
52113;DHT22;38109;49.488;31.988;2023-06-10T05:34:38;22.80;68.20
52113;DHT22;38109;49.488;31.988;2023-06-10T05:37:04;22.90;68.30
52113;DHT22;38109;49.488;31.988;2023-06-10T05:39:30;22.90;68.30
52113;DHT22;38109;49.488;31.988;2023-06-10T05:41:56;23.00;68.40
52113;DHT22;38109;49.488;31.988;2023-06-10T05:44:24;23.10;68.30
52113;DHT22;38109;49.488;31.988;2023-06-10T05:46:50;23.10;68.40
52113;DHT22;38109;49.488;31.988;2023-06-10T05:49:16;23.20;68.50
52113;DHT22;38109;49.488;31.988;2023-06-10T05:51:41;23.30;68.50
52113;DHT22;38109;49.488;31.988;2023-06-10T05:54:07;23.40;68.60
52113;DHT22;38109;49.488;31.988;2023-06-10T05:56:33;23.50;68.50
52113;DHT22;38109;49.488;31.988;2023-06-10T05:58:59;23.50;68.40
52113;DHT22;38109;49.488;31.988;2023-06-10T06:01:25;23.60;68.40
52113;DHT22;38109;49.488;31.988;2023-06-10T06:03:50;23.70;68.30
52113;DHT22;38109;49.488;31.988;2023-06-10T06:06:16;23.80;68.40
52113;DHT22;38109;49.488;31.988;2023-06-10T06:08:42;23.90;68.30
52113;DHT22;38109;49.488;31.988;2023-06-10T06:11:07;23.90;68.70
52113;DHT22;38109;49.488;31.988;2023-06-10T06:13:34;24.00;68.00
52113;DHT22;38109;49.488;31.988;2023-06-10T06:15:59;24.10;67.90
52113;DHT22;38109;49.488;31.988;2023-06-10T06:18:25;24.10;67.70
52113;DHT22;38109;49.488;31.988;2023-06-10T06:20:51;24.20;67.70
52113;DHT22;38109;49.488;31.988;2023-06-10T06:23:16;24.20;67.40
52113;DHT22;38109;49.488;31.988;2023-06-10T06:25:42;24.20;67.40
52113;DHT22;38109;49.488;31.988;2023-06-10T06:28:10;24.30;67.30
52113;DHT22;38109;49.488;31.988;2023-06-10T06:30:36;24.40;67.20
52113;DHT22;38109;49.488;31.988;2023-06-10T06:33:02;24.40;67.10
52113;DHT22;38109;49.488;31.988;2023-06-10T06:35:30;24.40;66.90
52113;DHT22;38109;49.488;31.988;2023-06-10T06:37:56;24.50;66.80
52113;DHT22;38109;49.488;31.988;2023-06-10T06:40:22;24.60;66.80
52113;DHT22;38109;49.488;31.988;2023-06-10T06:42:47;24.60;66.70
52113;DHT22;38109;49.488;31.988;2023-06-10T06:45:13;24.70;66.60
52113;DHT22;38109;49.488;31.988;2023-06-10T06:47:39;24.70;66.50
52113;DHT22;38109;49.488;31.988;2023-06-10T06:50:05;24.80;66.40
52113;DHT22;38109;49.488;31.988;2023-06-10T06:52:30;24.80;66.30
52113;DHT22;38109;49.488;31.988;2023-06-10T06:54:56;24.80;66.10
52113;DHT22;38109;49.488;31.988;2023-06-10T06:57:22;24.80;66.10
52113;DHT22;38109;49.488;31.988;2023-06-10T06:59:48;24.90;66.00
52113;DHT22;38109;49.488;31.988;2023-06-10T07:02:14;24.90;65.90
52113;DHT22;38109;49.488;31.988;2023-06-10T07:04:39;25.00;65.90
52113;DHT22;38109;49.488;31.988;2023-06-10T07:07:07;25.00;65.70
52113;DHT22;38109;49.488;31.988;2023-06-10T07:09:34;25.00;65.60
52113;DHT22;38109;49.488;31.988;2023-06-10T07:12:00;25.00;65.40
52113;DHT22;38109;49.488;31.988;2023-06-10T07:14:26;25.10;65.30
52113;DHT22;38109;49.488;31.988;2023-06-10T07:16:51;25.10;65.00
52113;DHT22;38109;49.488;31.988;2023-06-10T07:19:17;25.20;64.80
52113;DHT22;38109;49.488;31.988;2023-06-10T07:21:43;25.30;64.50
52113;DHT22;38109;49.488;31.988;2023-06-10T07:24:08;25.30;64.10
52113;DHT22;38109;49.488;31.988;2023-06-10T07:26:34;25.30;63.70
52113;DHT22;38109;49.488;31.988;2023-06-10T07:29:00;25.40;63.30
52113;DHT22;38109;49.488;31.988;2023-06-10T07:31:25;25.40;63.10
52113;DHT22;38109;49.488;31.988;2023-06-10T07:33:51;25.40;62.80
52113;DHT22;38109;49.488;31.988;2023-06-10T07:36:16;25.50;62.70
52113;DHT22;38109;49.488;31.988;2023-06-10T07:38:42;25.50;62.50
52113;DHT22;38109;49.488;31.988;2023-06-10T07:41:08;25.60;62.50
52113;DHT22;38109;49.488;31.988;2023-06-10T07:43:34;25.60;62.30
52113;DHT22;38109;49.488;31.988;2023-06-10T07:46:00;25.60;62.10
52113;DHT22;38109;49.488;31.988;2023-06-10T07:48:25;25.60;61.80
52113;DHT22;38109;49.488;31.988;2023-06-10T07:50:52;25.70;61.70
52113;DHT22;38109;49.488;31.988;2023-06-10T07:53:17;25.80;61.50
52113;DHT22;38109;49.488;31.988;2023-06-10T07:55:43;25.80;61.40
52113;DHT22;38109;49.488;31.988;2023-06-10T07:58:09;25.80;61.20
52113;DHT22;38109;49.488;31.988;2023-06-10T08:00:35;25.80;60.80
52113;DHT22;38109;49.488;31.988;2023-06-10T08:03:01;25.90;60.40
52113;DHT22;38109;49.488;31.988;2023-06-10T08:05:26;26.00;60.30
52113;DHT22;38109;49.488;31.988;2023-06-10T08:07:52;26.00;60.00
52113;DHT22;38109;49.488;31.988;2023-06-10T08:10:18;26.00;59.70
52113;DHT22;38109;49.488;31.988;2023-06-10T08:12:44;26.00;59.40
52113;DHT22;38109;49.488;31.988;2023-06-10T08:15:10;26.00;59.30
52113;DHT22;38109;49.488;31.988;2023-06-10T08:17:36;26.10;59.00
52113;DHT22;38109;49.488;31.988;2023-06-10T08:20:02;26.10;58.80
52113;DHT22;38109;49.488;31.988;2023-06-10T08:22:28;26.10;58.60
52113;DHT22;38109;49.488;31.988;2023-06-10T08:24:55;26.20;58.60
52113;DHT22;38109;49.488;31.988;2023-06-10T08:27:21;26.20;58.50
52113;DHT22;38109;49.488;31.988;2023-06-10T08:29:47;26.20;58.30
52113;DHT22;38109;49.488;31.988;2023-06-10T08:32:12;26.30;58.20
52113;DHT22;38109;49.488;31.988;2023-06-10T08:34:38;26.30;57.90
52113;DHT22;38109;49.488;31.988;2023-06-10T08:37:04;26.30;57.90
52113;DHT22;38109;49.488;31.988;2023-06-10T08:39:30;26.30;57.80
52113;DHT22;38109;49.488;31.988;2023-06-10T08:42:13;26.30;57.80
52113;DHT22;38109;49.488;31.988;2023-06-10T08:44:40;26.40;57.70
52113;DHT22;38109;49.488;31.988;2023-06-10T08:47:17;26.40;57.70
52113;DHT22;38109;49.488;31.988;2023-06-10T08:49:46;26.40;57.30
52113;DHT22;38109;49.488;31.988;2023-06-10T08:52:17;26.50;57.40
52113;DHT22;38109;49.488;31.988;2023-06-10T08:54:57;26.50;57.30
52113;DHT22;38109;49.488;31.988;2023-06-10T08:57:25;26.50;57.40
52113;DHT22;38109;49.488;31.988;2023-06-10T08:59:50;26.50;57.20
52113;DHT22;38109;49.488;31.988;2023-06-10T09:02:18;26.50;57.10
52113;DHT22;38109;49.488;31.988;2023-06-10T09:04:46;26.50;56.80
52113;DHT22;38109;49.488;31.988;2023-06-10T09:07:13;26.60;56.80
52113;DHT22;38109;49.488;31.988;2023-06-10T09:09:40;26.60;56.90
52113;DHT22;38109;49.488;31.988;2023-06-10T09:12:07;26.60;56.90
52113;DHT22;38109;49.488;31.988;2023-06-10T09:14:33;26.60;56.90
52113;DHT22;38109;49.488;31.988;2023-06-10T09:16:59;26.70;56.90
52113;DHT22;38109;49.488;31.988;2023-06-10T09:19:25;26.70;56.40
52113;DHT22;38109;49.488;31.988;2023-06-10T09:21:52;26.70;56.00
52113;DHT22;38109;49.488;31.988;2023-06-10T09:24:18;26.80;55.90
52113;DHT22;38109;49.488;31.988;2023-06-10T09:26:44;26.80;55.70
52113;DHT22;38109;49.488;31.988;2023-06-10T09:29:11;26.80;55.70
52113;DHT22;38109;49.488;31.988;2023-06-10T09:31:38;26.90;55.60
52113;DHT22;38109;49.488;31.988;2023-06-10T09:36:35;27.00;54.90
52113;DHT22;38109;49.488;31.988;2023-06-10T09:39:01;27.00;54.80
52113;DHT22;38109;49.488;31.988;2023-06-10T09:41:40;27.10;54.80
52113;DHT22;38109;49.488;31.988;2023-06-10T09:44:19;27.10;54.50
52113;DHT22;38109;49.488;31.988;2023-06-10T09:46:46;27.10;54.20
52113;DHT22;38109;49.488;31.988;2023-06-10T09:49:12;27.10;54.10
52113;DHT22;38109;49.488;31.988;2023-06-10T09:51:51;27.20;54.00
52113;DHT22;38109;49.488;31.988;2023-06-10T09:54:18;27.30;53.90
52113;DHT22;38109;49.488;31.988;2023-06-10T09:56:47;27.30;53.60
52113;DHT22;38109;49.488;31.988;2023-06-10T09:59:13;27.30;53.50
52113;DHT22;38109;49.488;31.988;2023-06-10T10:01:39;27.40;53.00
52113;DHT22;38109;49.488;31.988;2023-06-10T10:04:04;27.50;52.90
52113;DHT22;38109;49.488;31.988;2023-06-10T10:06:30;27.50;52.70
52113;DHT22;38109;49.488;31.988;2023-06-10T10:08:56;27.60;52.50
52113;DHT22;38109;49.488;31.988;2023-06-10T10:11:22;27.60;52.10
52113;DHT22;38109;49.488;31.988;2023-06-10T10:13:50;27.70;51.80
52113;DHT22;38109;49.488;31.988;2023-06-10T10:16:29;27.70;52.00
52113;DHT22;38109;49.488;31.988;2023-06-10T10:18:57;27.80;51.80
52113;DHT22;38109;49.488;31.988;2023-06-10T10:21:27;27.80;51.40
52113;DHT22;38109;49.488;31.988;2023-06-10T10:24:20;27.90;51.00
52113;DHT22;38109;49.488;31.988;2023-06-10T10:26:48;27.90;51.00
52113;DHT22;38109;49.488;31.988;2023-06-10T10:31:51;28.00;50.40
52113;DHT22;38109;49.488;31.988;2023-06-10T10:34:24;28.00;50.30
52113;DHT22;38109;49.488;31.988;2023-06-10T10:36:56;28.00;50.30
52113;DHT22;38109;49.488;31.988;2023-06-10T10:39:22;28.00;50.00
52113;DHT22;38109;49.488;31.988;2023-06-10T10:41:48;28.00;49.60
52113;DHT22;38109;49.488;31.988;2023-06-10T10:44:15;28.00;49.20
52113;DHT22;38109;49.488;31.988;2023-06-10T10:46:43;28.00;49.20
52113;DHT22;38109;49.488;31.988;2023-06-10T10:49:11;28.10;49.30
52113;DHT22;38109;49.488;31.988;2023-06-10T10:51:37;28.10;49.10
52113;DHT22;38109;49.488;31.988;2023-06-10T10:54:31;28.10;49.10
52113;DHT22;38109;49.488;31.988;2023-06-10T10:57:16;28.10;49.10
52113;DHT22;38109;49.488;31.988;2023-06-10T10:59:52;28.10;49.20
52113;DHT22;38109;49.488;31.988;2023-06-10T11:05:04;28.20;48.90
52113;DHT22;38109;49.488;31.988;2023-06-10T11:07:31;28.20;49.00
52113;DHT22;38109;49.488;31.988;2023-06-10T11:10:10;28.30;49.10
52113;DHT22;38109;49.488;31.988;2023-06-10T11:15:22;28.40;48.40
52113;DHT22;38109;49.488;31.988;2023-06-10T11:31:38;28.60;48.60
52113;DHT22;38109;49.488;31.988;2023-06-10T11:34:04;28.70;48.30
52113;DHT22;38109;49.488;31.988;2023-06-10T11:36:32;28.70;48.70
52113;DHT22;38109;49.488;31.988;2023-06-10T11:39:05;28.70;48.00
52113;DHT22;38109;49.488;31.988;2023-06-10T11:41:32;28.70;47.60
52113;DHT22;38109;49.488;31.988;2023-06-10T11:44:08;28.70;47.40
52113;DHT22;38109;49.488;31.988;2023-06-10T11:46:34;28.70;47.50
52113;DHT22;38109;49.488;31.988;2023-06-10T11:49:00;28.70;47.70
52113;DHT22;38109;49.488;31.988;2023-06-10T11:51:33;28.70;48.00
52113;DHT22;38109;49.488;31.988;2023-06-10T11:53:59;28.80;48.00
52113;DHT22;38109;49.488;31.988;2023-06-10T11:56:29;28.80;47.80
52113;DHT22;38109;49.488;31.988;2023-06-10T11:58:56;28.80;47.70
52113;DHT22;38109;49.488;31.988;2023-06-10T12:01:25;28.80;47.60
52113;DHT22;38109;49.488;31.988;2023-06-10T12:04:17;28.80;47.40
52113;DHT22;38109;49.488;31.988;2023-06-10T12:06:51;28.80;47.40
52113;DHT22;38109;49.488;31.988;2023-06-10T12:09:28;28.80;47.10
52113;DHT22;38109;49.488;31.988;2023-06-10T12:11:59;28.80;47.20
52113;DHT22;38109;49.488;31.988;2023-06-10T12:14:51;28.80;47.30
52113;DHT22;38109;49.488;31.988;2023-06-10T12:20:02;28.80;47.50
52113;DHT22;38109;49.488;31.988;2023-06-10T12:22:42;28.80;47.60
52113;DHT22;38109;49.488;31.988;2023-06-10T12:25:09;28.80;47.70
52113;DHT22;38109;49.488;31.988;2023-06-10T12:27:36;28.80;47.70
52113;DHT22;38109;49.488;31.988;2023-06-10T12:30:04;28.80;47.90
52113;DHT22;38109;49.488;31.988;2023-06-10T12:35:04;28.80;48.10
52113;DHT22;38109;49.488;31.988;2023-06-10T12:37:30;28.80;48.10
52113;DHT22;38109;49.488;31.988;2023-06-10T12:40:00;28.90;48.20
52113;DHT22;38109;49.488;31.988;2023-06-10T12:42:26;28.90;48.20
52113;DHT22;38109;49.488;31.988;2023-06-10T12:44:55;28.90;48.40
52113;DHT22;38109;49.488;31.988;2023-06-10T12:47:33;29.00;48.50
52113;DHT22;38109;49.488;31.988;2023-06-10T12:50:01;29.00;48.40
52113;DHT22;38109;49.488;31.988;2023-06-10T12:52:27;29.00;48.10
52113;DHT22;38109;49.488;31.988;2023-06-10T12:54:55;29.00;47.80
52113;DHT22;38109;49.488;31.988;2023-06-10T12:57:22;29.00;47.70
52113;DHT22;38109;49.488;31.988;2023-06-10T12:59:48;29.00;47.70
52113;DHT22;38109;49.488;31.988;2023-06-10T13:02:22;29.10;47.70
52113;DHT22;38109;49.488;31.988;2023-06-10T13:04:52;29.10;47.50
52113;DHT22;38109;49.488;31.988;2023-06-10T13:07:19;29.10;47.60
52113;DHT22;38109;49.488;31.988;2023-06-10T13:09:44;29.20;47.50
52113;DHT22;38109;49.488;31.988;2023-06-10T13:12:14;29.20;47.50
52113;DHT22;38109;49.488;31.988;2023-06-10T13:14:39;29.20;47.40
52113;DHT22;38109;49.488;31.988;2023-06-10T13:17:05;29.20;47.30
52113;DHT22;38109;49.488;31.988;2023-06-10T13:19:35;29.20;47.30
52113;DHT22;38109;49.488;31.988;2023-06-10T13:22:01;29.30;47.30
52113;DHT22;38109;49.488;31.988;2023-06-10T13:24:27;29.30;47.20
52113;DHT22;38109;49.488;31.988;2023-06-10T13:26:52;29.30;47.30
52113;DHT22;38109;49.488;31.988;2023-06-10T13:29:18;29.30;47.30
52113;DHT22;38109;49.488;31.988;2023-06-10T13:31:44;29.40;47.20
52113;DHT22;38109;49.488;31.988;2023-06-10T13:34:10;29.40;46.90
52113;DHT22;38109;49.488;31.988;2023-06-10T13:36:36;29.40;46.60
52113;DHT22;38109;49.488;31.988;2023-06-10T13:39:01;29.50;46.50
52113;DHT22;38109;49.488;31.988;2023-06-10T13:41:27;29.50;46.10
52113;DHT22;38109;49.488;31.988;2023-06-10T13:43:55;29.40;46.10
52113;DHT22;38109;49.488;31.988;2023-06-10T13:46:21;29.50;46.10
52113;DHT22;38109;49.488;31.988;2023-06-10T13:48:47;29.50;45.90
52113;DHT22;38109;49.488;31.988;2023-06-10T13:51:13;29.60;45.80
52113;DHT22;38109;49.488;31.988;2023-06-10T13:53:39;29.60;45.70
52113;DHT22;38109;49.488;31.988;2023-06-10T13:56:04;29.60;45.70
52113;DHT22;38109;49.488;31.988;2023-06-10T13:58:30;29.50;45.60
52113;DHT22;38109;49.488;31.988;2023-06-10T14:00:56;29.50;45.60
52113;DHT22;38109;49.488;31.988;2023-06-10T14:03:23;29.50;45.70
52113;DHT22;38109;49.488;31.988;2023-06-10T14:05:49;29.60;45.80
52113;DHT22;38109;49.488;31.988;2023-06-10T14:08:15;29.60;45.70
52113;DHT22;38109;49.488;31.988;2023-06-10T14:10:41;29.60;45.70
52113;DHT22;38109;49.488;31.988;2023-06-10T14:13:06;29.70;45.80
52113;DHT22;38109;49.488;31.988;2023-06-10T14:15:32;29.70;45.80
52113;DHT22;38109;49.488;31.988;2023-06-10T14:17:58;29.70;45.60
52113;DHT22;38109;49.488;31.988;2023-06-10T14:20:26;29.70;45.60
52113;DHT22;38109;49.488;31.988;2023-06-10T14:22:56;29.70;45.60
52113;DHT22;38109;49.488;31.988;2023-06-10T14:25:22;29.60;45.40
52113;DHT22;38109;49.488;31.988;2023-06-10T14:27:48;29.60;45.30
52113;DHT22;38109;49.488;31.988;2023-06-10T14:30:14;29.60;45.20
52113;DHT22;38109;49.488;31.988;2023-06-10T14:32:40;29.70;45.30
52113;DHT22;38109;49.488;31.988;2023-06-10T14:35:06;29.70;45.00
52113;DHT22;38109;49.488;31.988;2023-06-10T14:37:32;29.70;44.80
52113;DHT22;38109;49.488;31.988;2023-06-10T14:39:57;29.80;45.00
52113;DHT22;38109;49.488;31.988;2023-06-10T14:42:23;29.70;45.00
52113;DHT22;38109;49.488;31.988;2023-06-10T14:44:49;29.80;45.30
52113;DHT22;38109;49.488;31.988;2023-06-10T14:47:15;29.80;45.10
52113;DHT22;38109;49.488;31.988;2023-06-10T14:49:40;29.90;45.50
52113;DHT22;38109;49.488;31.988;2023-06-10T14:52:08;29.90;45.90
52113;DHT22;38109;49.488;31.988;2023-06-10T14:54:34;29.90;45.90
52113;DHT22;38109;49.488;31.988;2023-06-10T14:57:01;29.90;46.00
52113;DHT22;38109;49.488;31.988;2023-06-10T14:59:26;29.90;45.80
52113;DHT22;38109;49.488;31.988;2023-06-10T15:01:52;30.00;46.00
52113;DHT22;38109;49.488;31.988;2023-06-10T15:04:18;30.00;46.20
52113;DHT22;38109;49.488;31.988;2023-06-10T15:06:44;30.00;46.20
52113;DHT22;38109;49.488;31.988;2023-06-10T15:09:10;30.00;46.30
52113;DHT22;38109;49.488;31.988;2023-06-10T15:11:35;30.10;46.30
52113;DHT22;38109;49.488;31.988;2023-06-10T15:14:03;30.10;46.20
52113;DHT22;38109;49.488;31.988;2023-06-10T15:16:28;30.00;45.70
52113;DHT22;38109;49.488;31.988;2023-06-10T15:18:54;30.00;45.70
52113;DHT22;38109;49.488;31.988;2023-06-10T15:21:20;30.00;45.80
52113;DHT22;38109;49.488;31.988;2023-06-10T15:23:45;29.90;45.90
52113;DHT22;38109;49.488;31.988;2023-06-10T15:26:12;29.90;45.90
52113;DHT22;38109;49.488;31.988;2023-06-10T15:28:39;29.90;46.00
52113;DHT22;38109;49.488;31.988;2023-06-10T15:31:04;29.80;46.10
52113;DHT22;38109;49.488;31.988;2023-06-10T15:33:30;29.80;46.10
52113;DHT22;38109;49.488;31.988;2023-06-10T15:35:56;29.80;46.20
52113;DHT22;38109;49.488;31.988;2023-06-10T15:38:21;29.80;46.30
52113;DHT22;38109;49.488;31.988;2023-06-10T15:40:47;29.70;46.90
52113;DHT22;38109;49.488;31.988;2023-06-10T15:43:13;29.70;47.70
52113;DHT22;38109;49.488;31.988;2023-06-10T15:45:39;29.60;48.30
52113;DHT22;38109;49.488;31.988;2023-06-10T15:48:04;29.60;48.70
52113;DHT22;38109;49.488;31.988;2023-06-10T15:50:30;29.50;48.90